PWSweather.com
Personal Weather Stations
Station Observations
AC5CV
Greenleaf Peninsula, Waco, TX 76710

Greenleaf PeninsulaWaco, TX 76710

Lat: 31.565, Lon: -97.198

Elevation: 570

Station Type: Ambient WS2080

http://johnchamber.dyndns.info/

Latest ConditionsUpdated 3:00:00 AM CDT Sunday, Apr 23, 2017
Currently Today's Max Today's Min Today's Average
Temperature 52.6°F11.4°C 55.8°F13.2°C 52.2°F11.2°C 53.5°F11.9°C
Dew Point 47.3°F8.5°C 48.2°F9.0°C 47.0°F8.3°C 47.6°F8.7°C
Winds 0.7 mph WNW1.1 kmh WNW 5.3 mph NW8.5 kmh NW - 2.1 mph 3.4 kmh
Wind Gusts 2.5 mph4.0 kmh 9.8 mph15.8 kmh - -
Humidity 82% 84% 74% 80%
Pressure 29.52 in999.7 mb 29.54 in1000.3 mb 29.52 in999.7 mb -
Hour Temp Dew Point Humidity Winds Wind Gusts Pressure Precip Precip Rate Daily Precip Total
03:00 AM 52.6°F11.4°C 47.3°F8.5°C 82% 0.7 mph WNW1.1 kmh WNW 2.5 mph4.0 kmh 29.52 in999.7 mb 0.00 in0.0 mm 0.00 in0.0 mm 0.00 in0.0 mm
02:55 AM 52.6°F11.4°C 47.3°F8.5°C 82% 1.0 mph W1.6 kmh W 4.9 mph7.9 kmh 29.52 in999.7 mb 0.00 in0.0 mm 0.00 in0.0 mm 0.00 in0.0 mm
02:50 AM 52.6°F11.4°C 47.3°F8.5°C 82% 1.9 mph WNW3.1 kmh WNW 4.9 mph7.9 kmh 29.52 in999.7 mb 0.00 in0.0 mm 0.00 in0.0 mm 0.00 in0.0 mm
02:45 AM 52.6°F11.4°C 47.6°F8.7°C 83% 1.9 mph W3.1 kmh W 4.9 mph7.9 kmh 29.52 in999.7 mb 0.00 in0.0 mm 0.00 in0.0 mm 0.00 in0.0 mm
02:40 AM 52.7°F11.5°C 47.7°F8.7°C 83% 0.9 mph W1.4 kmh W 4.9 mph7.9 kmh 29.53 in1000.0 mb 0.00 in0.0 mm 0.00 in0.0 mm 0.00 in0.0 mm
02:35 AM 52.9°F11.6°C 47.9°F8.8°C 83% 2.4 mph WNW3.9 kmh WNW 7.4 mph11.9 kmh 29.53 in1000.0 mb 0.00 in0.0 mm 0.00 in0.0 mm 0.00 in0.0 mm
02:30 AM 52.9°F11.6°C 47.9°F8.8°C 83% 1.9 mph WNW3.1 kmh WNW 7.4 mph11.9 kmh 29.53 in1000.0 mb 0.00 in0.0 mm 0.00 in0.0 mm 0.00 in0.0 mm
02:25 AM 52.9°F11.6°C 47.9°F8.8°C 83% 1.8 mph NW2.9 kmh NW 4.9 mph7.9 kmh 29.53 in1000.0 mb 0.00 in0.0 mm 0.00 in0.0 mm 0.00 in0.0 mm
02:20 AM 53.1°F11.7°C 48.2°F9.0°C 84% 4.2 mph NW6.8 kmh NW 7.4 mph11.9 kmh 29.53 in1000.0 mb 0.00 in0.0 mm 0.00 in0.0 mm 0.00 in0.0 mm
02:15 AM 52.9°F11.6°C 48.2°F9.0°C 84% 2.2 mph NW3.5 kmh NW 4.9 mph7.9 kmh 29.53 in1000.0 mb 0.00 in0.0 mm 0.00 in0.0 mm 0.00 in0.0 mm
02:10 AM 52.8°F11.6°C 47.7°F8.7°C 83% 1.4 mph NW2.3 kmh NW 7.4 mph11.9 kmh 29.53 in1000.0 mb 0.00 in0.0 mm 0.00 in0.0 mm 0.00 in0.0 mm
02:05 AM 52.7°F11.5°C 47.7°F8.7°C 83% 2.9 mph NW4.7 kmh NW 7.4 mph11.9 kmh 29.53 in1000.0 mb 0.00 in0.0 mm 0.00 in0.0 mm 0.00 in0.0 mm
02:00 AM 52.9°F11.6°C 47.9°F8.8°C 83% 1.0 mph NW1.6 kmh NW 4.9 mph7.9 kmh 29.53 in1000.0 mb 0.00 in0.0 mm 0.00 in0.0 mm 0.00 in0.0 mm
01:55 AM 52.3°F11.3°C 47.3°F8.5°C 83% 1.5 mph NW2.4 kmh NW 7.4 mph11.9 kmh 29.53 in1000.0 mb 0.00 in0.0 mm 0.00 in0.0 mm 0.00 in0.0 mm
01:50 AM 52.3°F11.3°C 47.3°F8.5°C 83% 1.4 mph NW2.3 kmh NW 7.4 mph11.9 kmh 29.54 in1000.3 mb 0.00 in0.0 mm 0.00 in0.0 mm 0.00 in0.0 mm
01:45 AM 52.2°F11.2°C 47.5°F8.6°C 84% 1.8 mph WNW2.9 kmh WNW 4.9 mph7.9 kmh 29.54 in1000.3 mb 0.00 in0.0 mm 0.00 in0.0 mm 0.00 in0.0 mm
01:40 AM 52.3°F11.3°C 47.3°F8.5°C 83% 0.5 mph NW0.8 kmh NW 4.9 mph7.9 kmh 29.54 in1000.3 mb 0.00 in0.0 mm 0.00 in0.0 mm 0.00 in0.0 mm
01:35 AM 52.5°F11.4°C 47.5°F8.6°C 83% 0.8 mph WNW1.3 kmh WNW 4.9 mph7.9 kmh 29.54 in1000.3 mb 0.00 in0.0 mm 0.00 in0.0 mm 0.00 in0.0 mm
01:30 AM 52.5°F11.4°C 47.5°F8.6°C 83% 0.9 mph NNW1.4 kmh NNW 4.9 mph7.9 kmh 29.54 in1000.3 mb 0.00 in0.0 mm 0.00 in0.0 mm 0.00 in0.0 mm
01:25 AM 52.5°F11.4°C 47.3°F8.5°C 82% 1.2 mph N1.9 kmh N 4.9 mph7.9 kmh 29.54 in1000.3 mb 0.00 in0.0 mm 0.00 in0.0 mm 0.00 in0.0 mm
01:20 AM 52.7°F11.5°C 47.3°F8.5°C 82% 1.8 mph N2.9 kmh N 4.9 mph7.9 kmh 29.54 in1000.3 mb 0.00 in0.0 mm 0.00 in0.0 mm 0.00 in0.0 mm
01:15 AM 53.4°F11.9°C 47.7°F8.7°C 81% 2.1 mph NNW3.4 kmh NNW 4.9 mph7.9 kmh 29.54 in1000.3 mb 0.00 in0.0 mm 0.00 in0.0 mm 0.00 in0.0 mm
01:10 AM 53.5°F11.9°C 47.5°F8.6°C 80% 1.5 mph NNW2.4 kmh NNW 9.8 mph15.8 kmh 29.54 in1000.3 mb 0.00 in0.0 mm 0.00 in0.0 mm 0.00 in0.0 mm
01:05 AM 53.6°F12.0°C 47.4°F8.6°C 79% 3.3 mph NW5.3 kmh NW 9.8 mph15.8 kmh 29.54 in1000.3 mb 0.00 in0.0 mm 0.00 in0.0 mm 0.00 in0.0 mm
01:00 AM 53.7°F12.1°C 47.0°F8.3°C 78% 3.6 mph N5.8 kmh N 7.4 mph11.9 kmh 29.54 in1000.3 mb 0.00 in0.0 mm 0.00 in0.0 mm 0.00 in0.0 mm
12:55 AM 54.3°F12.4°C 47.6°F8.7°C 78% 2.8 mph N4.5 kmh N 7.4 mph11.9 kmh 29.54 in1000.3 mb 0.00 in0.0 mm 0.00 in0.0 mm 0.00 in0.0 mm
12:50 AM 54.4°F12.4°C 47.7°F8.7°C 78% 2.8 mph NNW4.5 kmh NNW 7.4 mph11.9 kmh 29.54 in1000.3 mb 0.00 in0.0 mm 0.00 in0.0 mm 0.00 in0.0 mm
12:45 AM 54.5°F12.5°C 47.8°F8.8°C 78% 2.5 mph NNW4.0 kmh NNW 4.9 mph7.9 kmh 29.54 in1000.3 mb 0.00 in0.0 mm 0.00 in0.0 mm 0.00 in0.0 mm
12:40 AM 54.5°F12.5°C 47.8°F8.8°C 78% 4.9 mph NW7.9 kmh NW 9.8 mph15.8 kmh 29.54 in1000.3 mb 0.00 in0.0 mm 0.00 in0.0 mm 0.00 in0.0 mm
12:35 AM 54.8°F12.7°C 48.1°F8.9°C 78% 1.6 mph NW2.6 kmh NW 4.9 mph7.9 kmh 29.54 in1000.3 mb 0.00 in0.0 mm 0.00 in0.0 mm 0.00 in0.0 mm
12:30 AM 54.9°F12.7°C 48.0°F8.9°C 78% 1.1 mph NW1.8 kmh NW 4.9 mph7.9 kmh 29.54 in1000.3 mb 0.00 in0.0 mm 0.00 in0.0 mm 0.00 in0.0 mm
12:25 AM 54.9°F12.7°C 47.5°F8.6°C 76% 3.3 mph NW5.3 kmh NW 7.4 mph11.9 kmh 29.54 in1000.3 mb 0.00 in0.0 mm 0.00 in0.0 mm 0.00 in0.0 mm
12:20 AM 54.9°F12.7°C 47.5°F8.6°C 76% 2.7 mph NNW4.3 kmh NNW 7.4 mph11.9 kmh 29.54 in1000.3 mb 0.00 in0.0 mm 0.00 in0.0 mm 0.00 in0.0 mm
12:15 AM 55.4°F13.0°C 47.7°F8.7°C 75% 2.1 mph NW3.4 kmh NW 7.4 mph11.9 kmh 29.54 in1000.3 mb 0.00 in0.0 mm 0.00 in0.0 mm 0.00 in0.0 mm
12:10 AM 55.6°F13.1°C 47.8°F8.8°C 75% 3.6 mph NW5.8 kmh NW 9.8 mph15.8 kmh 29.54 in1000.3 mb 0.00 in0.0 mm 0.00 in0.0 mm 0.00 in0.0 mm
12:05 AM 55.6°F13.1°C 47.5°F8.6°C 74% 2.1 mph NW3.4 kmh NW 7.4 mph11.9 kmh 29.54 in1000.3 mb 0.00 in0.0 mm 0.00 in0.0 mm 0.00 in0.0 mm
12:00 AM 55.8°F13.2°C 47.6°F8.7°C 74% 5.3 mph NW8.5 kmh NW 9.8 mph15.8 kmh 29.54 in1000.3 mb 0.00 in0.0 mm 0.00 in0.0 mm 0.00 in0.0 mm